Flight Track Log - Related Links

Times and Time Zones

All times are in EDT time to prevent confusion due to time zone crossing. See the TAM3591 flight status page for this flight to view local times or setup timezone preferences in your user account.

Time Position Orientation Groundspeed Altitude Reporting Facility
EDT Latitude Longitude Course Direction KTS MPH feet Rate Location/Type
Mon 09:42:17 PM -15.8980 -47.8520 270° West 180 207 5,500  Level FlightAware ADS-B
Mon 09:44:00 PM -15.9871 -47.9786 234° Southwest  Level Estimated
Mon 09:45:00 PM -16.0390 -48.0524 234° Southwest  Level Estimated
Mon 09:46:00 PM -16.0908 -48.1262 234° Southwest  Level Estimated
Mon 09:47:00 PM -16.1427 -48.2001 234° Southwest  Level Estimated
Mon 09:48:00 PM -16.2032 -48.2865 234° Southwest  Level Estimated
Mon 09:49:00 PM -16.2550 -48.3604 234° Southwest  Level Estimated
Mon 09:49:47 PM -16.2260 -48.4240 234° Southwest 386 444 18,000  Level FlightAware ADS-B
Mon 09:50:32 PM -16.2710 -48.4890 234° Southwest 387 445 19,400 1,565 Climbing FlightAware ADS-B
Mon 09:51:42 PM -16.3480 -48.6010 234° Southwest 401 461 21,000 873 Climbing FlightAware ADS-B
Mon 09:52:22 PM -16.3860 -48.6540 233° Southwest 401 461 21,000  Level FlightAware ADS-B
Mon 09:53:02 PM -16.4230 -48.7070 234° Southwest 401 461 21,000  Level FlightAware ADS-B
Mon 09:53:52 PM -16.4690 -48.7740 234° Southwest 401 461 21,000  Level FlightAware ADS-B
Mon 09:54:32 PM -16.5060 -48.8270 234° Southwest 401 461 21,000  Level FlightAware ADS-B
Mon 09:55:12 PM -16.5430 -48.8800 234° Southwest 401 461 21,000  Level FlightAware ADS-B
Mon 09:57:00 PM -16.6369 -49.0128 234° Southwest  Level Estimated
Mon 09:58:00 PM -16.6891 -49.0866 234° Southwest  Level Estimated
Mon 09:59:00 PM -16.7412 -49.1605 234° Southwest  Level Estimated
Mon 10:00:00 PM -16.7933 -49.2344 234° Southwest  Level Estimated
Mon 10:01:00 PM -16.8453 -49.3083 234° Southwest  Level Estimated
Mon 10:02:00 PM -16.8974 -49.3823 234° Southwest  Level Estimated
Mon 10:03:00 PM -16.9494 -49.4564 234° Southwest  Level Estimated
Mon 10:04:00 PM -17.0013 -49.5304 234° Southwest  Level Estimated
Mon 10:05:00 PM -17.0533 -49.6046 234° Southwest  Level Estimated
Mon 10:06:00 PM -17.1052 -49.6787 234° Southwest  Level Estimated
Mon 10:07:00 PM -17.1571 -49.7529 234° Southwest  Level Estimated
Mon 10:08:00 PM -17.2090 -49.8272 234° Southwest  Level Estimated
Mon 10:09:00 PM -17.2608 -49.9014 234° Southwest  Level Estimated
Mon 10:10:00 PM -17.3127 -49.9758 234° Southwest  Level Estimated
Mon 10:11:00 PM -17.3645 -50.0501 234° Southwest  Level Estimated
Mon 10:12:00 PM -17.4162 -50.1245 234° Southwest  Level Estimated
Mon 10:13:00 PM -17.4680 -50.1990 234° Southwest  Level Estimated
Mon 10:14:00 PM -17.5197 -50.2735 234° Southwest  Level Estimated
Mon 10:15:00 PM -17.5713 -50.3480 234° Southwest  Level Estimated
Mon 10:16:00 PM -17.6230 -50.4226 234° Southwest  Level Estimated
Mon 10:17:00 PM -17.6746 -50.4972 234° Southwest  Level Estimated
Mon 10:18:00 PM -17.7262 -50.5719 234° Southwest  Level Estimated
Mon 10:19:00 PM -17.7726 -50.6391 234° Southwest  Level Estimated
Mon 10:20:00 PM -17.8190 -50.7064 234° Southwest  Level Estimated
Mon 10:21:00 PM -17.8654 -50.7737 234° Southwest  Level Estimated
Mon 10:22:00 PM -17.9117 -50.8410 234° Southwest  Level Estimated
Mon 10:23:00 PM -17.9580 -50.9084 234° Southwest  Level Estimated
Mon 10:24:00 PM -18.0043 -50.9758 234° Southwest  Level Estimated
Mon 10:25:00 PM -18.0506 -51.0432 234° Southwest  Level Estimated
Mon 10:26:00 PM -18.0969 -51.1107 234° Southwest  Level Estimated
Mon 10:27:00 PM -18.1431 -51.1782 234° Southwest  Level Estimated
Mon 10:28:00 PM -18.1893 -51.2458 234° Southwest  Level Estimated
Mon 10:29:00 PM -18.2355 -51.3134 234° Southwest  Level Estimated
Mon 10:30:00 PM -18.2816 -51.3810 234° Southwest  Level Estimated
Mon 10:31:00 PM -18.3278 -51.4486 234° Southwest  Level Estimated
Mon 10:32:00 PM -18.3739 -51.5163 234° Southwest  Level Estimated
Mon 10:33:00 PM -18.4200 -51.5840 234° Southwest  Level Estimated
Mon 10:34:00 PM -18.4660 -51.6518 234° Southwest  Level Estimated
Mon 10:35:00 PM -18.5121 -51.7196 234° Southwest  Level Estimated
Mon 10:36:00 PM -18.5581 -51.7875 234° Southwest  Level Estimated
Mon 10:37:00 PM -18.6040 -51.8553 234° Southwest  Level Estimated
Mon 10:38:00 PM -18.6500 -51.9232 234° Southwest  Level Estimated
Mon 10:39:00 PM -18.6959 -51.9912 234° Southwest  Level Estimated
Mon 10:40:00 PM -18.7419 -52.0592 234° Southwest  Level Estimated
Mon 10:41:00 PM -18.7878 -52.1272 235° Southwest  Level Estimated
Mon 10:42:00 PM -18.8336 -52.1953 235° Southwest  Level Estimated
Mon 10:43:00 PM -18.8794 -52.2634 235° Southwest  Level Estimated
Mon 10:44:00 PM -18.9253 -52.3315 235° Southwest  Level Estimated
Mon 10:45:00 PM -18.9711 -52.3997 235° Southwest  Level Estimated
Mon 10:46:00 PM -19.0168 -52.4679 235° Southwest  Level Estimated
Mon 10:47:00 PM -19.0626 -52.5361 235° Southwest  Level Estimated
Mon 10:48:00 PM -19.1083 -52.6044 235° Southwest  Level Estimated
Mon 10:49:00 PM -19.1540 -52.6727 235° Southwest  Level Estimated
Mon 10:50:00 PM -19.1996 -52.7411 235° Southwest  Level Estimated
Mon 10:51:00 PM -19.2453 -52.8095 235° Southwest  Level Estimated
Mon 10:52:00 PM -19.2909 -52.8779 235° Southwest  Level Estimated
Mon 10:53:00 PM -19.3365 -52.9464 235° Southwest  Level Estimated
Mon 10:54:00 PM -19.3820 -53.0149 235° Southwest  Level Estimated
Mon 10:55:00 PM -19.4276 -53.0835 235° Southwest  Level Estimated
Mon 10:56:00 PM -19.4731 -53.1521 235° Southwest  Level Estimated
Mon 10:57:00 PM -19.5186 -53.2207 235° Southwest  Level Estimated
Mon 10:58:00 PM -19.5640 -53.2894 235° Southwest  Level Estimated
Mon 10:59:00 PM -19.6095 -53.3581 235° Southwest  Level Estimated
Mon 11:00:00 PM -19.6549 -53.4268 235° Southwest  Level Estimated
Mon 11:01:00 PM -19.7003 -53.4956 235° Southwest  Level Estimated
Mon 11:02:00 PM -19.7456 -53.5644 235° Southwest  Level Estimated
Mon 11:03:00 PM -19.7910 -53.6333 235° Southwest  Level Estimated
Mon 11:04:00 PM -19.8363 -53.7022 235° Southwest  Level Estimated
Mon 11:05:00 PM -19.8815 -53.7711 235° Southwest  Level Estimated
Mon 11:06:00 PM -19.9268 -53.8401 235° Southwest  Level Estimated
Mon 11:07:00 PM -19.9720 -53.9091 235° Southwest  Level Estimated
Mon 11:08:00 PM -20.0172 -53.9782 235° Southwest  Level Estimated
Mon 11:09:00 PM -20.0624 -54.0473 235° Southwest  Level Estimated
Mon 11:10:00 PM -20.1075 -54.1164 235° Southwest  Level Estimated
Mon 11:11:00 PM -20.1526 -54.1856 235° Southwest  Level Estimated
Mon 11:12:00 PM -20.1977 -54.2548 235° Southwest  Level Estimated
Mon 11:13:00 PM -20.2428 -54.3241 235° Southwest  Level Estimated
Mon 11:14:00 PM -20.2878 -54.3934 235° Southwest  Level Estimated
Mon 11:15:00 PM -20.3328 -54.4627 235° Southwest  Level Estimated
Mon 11:16:00 PM -20.3778 -54.5321 235° Southwest  Level Estimated
Mon 11:17:00 PM -20.4228 -54.6015 235° Southwest  Level Estimated
Mon 11:18:00 PM -20.4677 -54.6710 235° Southwest  Level Estimated
Mon 11:19:00 PM -20.4687 -54.6725 235° Southwest  Level Estimated
Mon 11:20:00 PM -20.4687 -54.6725 343° North  Level Estimated
Mon 11:21:00 PM -20.4687 -54.6725 343° North  Level Estimated
Mon 11:22:00 PM -20.4687 -54.6725 343° North  Level Estimated
Mon 11:23:00 PM -20.4687 -54.6725 343° North  Level Estimated
Mon 11:24:00 PM -20.4687 -54.6725 343° North  Level Estimated
Mon 11:25:00 PM -20.4687 -54.6725 343° North  Level Estimated

Login

Don't have an account? Register now (free) for customized features, flight alerts, and more!